createdAt,value
2023-01-27T00:04:56.529Z,99546.16
2023-01-27T00:09:58.642Z,99568.88
2023-01-27T00:15:00.779Z,99560.78
2023-01-27T00:20:04.043Z,99566.94
2023-01-27T00:25:06.728Z,99563.41
2023-01-27T00:30:09.623Z,99568.53
2023-01-27T00:35:12.439Z,99535.25
2023-01-27T00:40:17.390Z,99537.16
2023-01-27T00:45:37.927Z,99546.69
2023-01-27T00:50:41.151Z,99523.25
2023-01-27T00:55:43.389Z,99544.38
2023-01-27T01:00:45.759Z,99545.81
2023-01-27T01:05:48.221Z,99523.31
2023-01-27T01:10:50.362Z,99543.59
2023-01-27T01:15:52.514Z,99513.72
2023-01-27T01:20:54.574Z,99526.44
2023-01-27T01:26:10.582Z,99520.25
2023-01-27T01:31:16.120Z,99541.72
2023-01-27T01:36:20.484Z,99537.16
2023-01-27T01:41:23.386Z,99543.41
2023-01-27T01:46:25.612Z,99540.75
2023-01-27T01:52:04.294Z,99535.00
2023-01-27T01:57:20.292Z,99506.91
2023-01-27T02:02:26.117Z,99482.34
2023-01-27T02:07:34.772Z,99518.97
2023-01-27T02:12:36.959Z,99491.38
2023-01-27T02:17:42.235Z,99501.38
2023-01-27T02:23:12.480Z,99500.25
2023-01-27T02:28:14.657Z,99507.78
2023-01-27T02:33:16.755Z,99511.63
2023-01-27T02:38:20.149Z,99511.63
2023-01-27T02:43:22.268Z,99481.84
2023-01-27T02:48:24.455Z,99494.97
2023-01-27T02:53:26.697Z,99509.16
2023-01-27T02:58:30.187Z,99466.97
2023-01-27T03:03:47.650Z,99491.78
2023-01-27T03:08:53.971Z,99478.66
2023-01-27T03:13:56.725Z,99470.66
2023-01-27T03:18:58.941Z,99462.50
2023-01-27T03:24:01.491Z,99501.31
2023-01-27T03:29:22.126Z,99479.13
2023-01-27T03:34:24.671Z,99471.84
2023-01-27T03:39:50.209Z,99511.63
2023-01-27T03:45:11.304Z,99514.09
2023-01-27T03:50:19.569Z,99503.53
2023-01-27T03:55:23.379Z,99511.19
2023-01-27T04:00:25.570Z,99495.81
2023-01-27T04:05:46.137Z,99520.56
2023-01-27T04:11:08.264Z,99489.81
2023-01-27T04:16:10.674Z,99479.25
2023-01-27T04:21:14.036Z,99493.09
2023-01-27T04:26:19.139Z,99537.16
2023-01-27T04:31:21.228Z,99528.25
2023-01-27T04:36:23.362Z,99500.53
2023-01-27T04:41:25.478Z,99544.81
2023-01-27T04:46:27.637Z,99550.72
2023-01-27T04:51:29.857Z,99535.25
2023-01-27T04:56:34.334Z,99520.63
2023-01-27T05:01:36.596Z,99526.78
2023-01-27T05:06:38.705Z,99545.81
2023-01-27T05:11:40.834Z,99557.03
2023-01-27T05:16:43.003Z,99540.19
2023-01-27T05:21:45.378Z,99523.22
2023-01-27T05:26:47.477Z,99526.81
2023-01-27T05:31:50.622Z,99574.06
2023-01-27T05:36:55.696Z,99552.91
2023-01-27T05:41:58.124Z,99547.53
2023-01-27T05:47:00.252Z,99569.50
2023-01-27T05:52:02.396Z,99559.53
2023-01-27T05:57:04.974Z,99567.53
2023-01-27T06:02:07.510Z,99589.50
2023-01-27T06:07:09.628Z,99580.94
2023-01-27T06:12:11.847Z,99583.41
2023-01-27T06:17:13.958Z,99557.06
2023-01-27T06:22:16.074Z,99551.75
2023-01-27T06:27:18.315Z,99576.13
2023-01-27T06:32:20.367Z,99532.22
2023-01-27T06:37:23.029Z,99586.88
2023-01-27T06:42:25.723Z,99596.19
2023-01-27T06:47:27.830Z,99563.38
2023-01-27T06:52:29.954Z,99589.78
2023-01-27T06:57:32.139Z,99579.28
2023-01-27T07:02:34.378Z,99592.69
2023-01-27T07:07:36.832Z,99607.78
2023-01-27T07:12:39.840Z,99597.91
2023-01-27T07:17:42.170Z,99592.59
2023-01-27T07:22:44.303Z,99593.50
2023-01-27T07:27:46.452Z,99610.16
2023-01-27T07:32:50.569Z,99594.19
2023-01-27T07:37:52.846Z,99626.81
2023-01-27T07:42:59.133Z,99611.66
2023-01-27T07:48:08.031Z,99641.38
2023-01-27T07:53:17.841Z,99649.06
2023-01-27T07:58:20.286Z,99613.84
2023-01-27T08:03:27.717Z,99630.69
2023-01-27T08:08:29.922Z,99617.66
2023-01-27T08:13:32.326Z,99636.78
2023-01-27T08:18:34.971Z,99654.44
2023-01-27T08:23:37.663Z,99642.41
2023-01-27T08:28:40.694Z,99658.69
2023-01-27T08:33:44.762Z,99627.03
2023-01-27T08:38:49.446Z,99628.00
2023-01-27T08:43:51.921Z,99645.88
2023-01-27T08:48:54.184Z,99625.84
2023-01-27T08:53:56.859Z,99640.09
2023-01-27T08:58:59.178Z,99649.19
2023-01-27T09:04:01.350Z,99649.25
2023-01-27T09:09:11.443Z,99606.88
2023-01-27T09:14:14.227Z,99624.75
2023-01-27T09:19:16.689Z,99660.97
2023-01-27T09:24:19.692Z,99642.47
2023-01-27T09:29:22.079Z,99627.75
2023-01-27T09:34:24.407Z,99658.59
2023-01-27T09:39:29.580Z,99659.22
2023-01-27T09:45:11.273Z,99629.94
2023-01-27T09:50:38.591Z,99665.91
2023-01-27T09:55:43.446Z,99658.91
2023-01-27T10:00:48.430Z,99645.31
2023-01-27T10:06:34.442Z,99637.63
2023-01-27T10:11:52.443Z,99645.81
2023-01-27T10:17:09.958Z,99657.13
2023-01-27T10:22:36.708Z,99647.75
2023-01-27T10:27:43.680Z,99652.88
2023-01-27T10:33:07.477Z,99643.84
2023-01-27T10:38:29.445Z,99660.06
2023-01-27T10:43:52.156Z,99656.09
2023-01-27T10:49:23.238Z,99663.22
2023-01-27T10:54:36.435Z,99660.59
2023-01-27T10:59:46.398Z,99646.94
2023-01-27T11:05:01.058Z,99656.09
2023-01-27T11:10:13.065Z,99658.59
2023-01-27T11:15:27.741Z,99672.06
2023-01-27T11:20:54.551Z,99672.13
2023-01-27T11:26:09.943Z,99595.44
2023-01-27T11:31:15.667Z,99664.25
2023-01-27T11:36:18.195Z,99633.09
2023-01-27T11:41:20.696Z,99668.59
2023-01-27T11:46:24.209Z,99677.41
2023-01-27T11:51:40.358Z,99667.06
2023-01-27T11:56:46.383Z,99660.72
2023-01-27T12:01:53.292Z,99675.09
2023-01-27T12:06:59.872Z,99647.78
2023-01-27T12:12:14.388Z,99677.78
2023-01-27T12:17:30.962Z,99669.00
2023-01-27T12:22:35.177Z,99681.03
2023-01-27T12:27:41.580Z,99689.69
2023-01-27T12:32:46.686Z,99693.84
2023-01-27T12:37:49.685Z,99696.63
2023-01-27T12:43:16.550Z,99698.72
2023-01-27T12:48:20.376Z,99701.03
2023-01-27T12:53:28.028Z,99708.72
2023-01-27T12:58:36.533Z,99665.47
2023-01-27T13:03:41.234Z,99710.97
2023-01-27T13:08:44.047Z,99697.81
2023-01-27T13:13:51.457Z,99710.09
2023-01-27T13:18:58.810Z,99708.25
2023-01-27T13:24:04.096Z,99723.81
2023-01-27T13:29:09.457Z,99734.31
2023-01-27T13:34:37.527Z,99733.41
2023-01-27T13:39:54.964Z,99747.13
2023-01-27T13:45:07.956Z,99739.44
2023-01-27T13:50:23.133Z,99726.81
2023-01-27T13:55:41.031Z,99747.91
2023-01-27T14:00:53.873Z,99722.41
2023-01-27T14:06:11.819Z,99753.66
2023-01-27T14:11:26.323Z,99736.03
2023-01-27T14:16:43.210Z,99767.47
2023-01-27T14:22:25.576Z,99765.88
2023-01-27T14:28:01.366Z,99769.28
2023-01-27T14:33:15.260Z,99757.25
2023-01-27T14:38:26.981Z,99769.84
2023-01-27T14:44:00.363Z,99782.66
2023-01-27T14:49:10.195Z,99784.34
2023-01-27T14:54:31.606Z,99791.16
2023-01-27T14:59:59.144Z,99791.88
2023-01-27T15:05:29.297Z,99799.31
2023-01-27T15:10:32.440Z,99787.75
2023-01-27T15:15:56.046Z,99799.72
2023-01-27T15:21:04.086Z,99802.13
2023-01-27T15:26:08.586Z,99801.25
2023-01-27T15:31:24.279Z,99784.47
2023-01-27T15:36:32.430Z,99808.94
2023-01-27T15:41:38.039Z,99795.44
2023-01-27T15:46:45.039Z,99823.53
2023-01-27T15:51:49.703Z,99813.72
2023-01-27T15:56:54.116Z,99801.13
2023-01-27T16:02:17.649Z,99797.66
2023-01-27T16:07:32.036Z,99809.84
2023-01-27T16:12:48.730Z,99833.41
2023-01-27T16:18:03.416Z,99826.53
2023-01-27T16:23:16.212Z,99829.56
2023-01-27T16:28:21.705Z,99832.03
2023-01-27T16:33:31.761Z,99814.22
2023-01-27T16:38:39.574Z,99846.69
2023-01-27T16:44:04.910Z,99847.56
2023-01-27T16:49:32.344Z,99827.09
2023-01-27T16:54:40.853Z,99827.81
2023-01-27T16:59:43.008Z,99842.97
2023-01-27T17:04:49.958Z,99827.81
2023-01-27T17:10:01.408Z,99837.78
2023-01-27T17:15:26.341Z,99831.44
2023-01-27T17:20:34.138Z,99844.25
2023-01-27T17:25:38.693Z,99863.75
2023-01-27T17:30:42.445Z,99856.69
2023-01-27T17:35:50.271Z,99858.78
2023-01-27T17:40:54.681Z,99868.78
2023-01-27T17:46:06.307Z,99869.94
2023-01-27T17:51:13.273Z,99874.91
2023-01-27T17:56:20.819Z,99831.69
2023-01-27T18:01:23.498Z,99874.78
2023-01-27T18:06:29.147Z,99859.28
2023-01-27T18:11:34.215Z,99871.56
2023-01-27T18:16:37.170Z,99887.72
2023-01-27T18:21:39.610Z,99852.53
2023-01-27T18:26:43.562Z,99858.19
2023-01-27T18:32:03.044Z,99890.34
2023-01-27T18:37:23.399Z,99872.34
2023-01-27T18:42:29.368Z,99862.63
2023-01-27T18:47:35.308Z,99896.53
2023-01-27T18:52:41.123Z,99906.06
2023-01-27T18:57:44.886Z,99892.47
2023-01-27T19:03:04.925Z,99894.50
2023-01-27T19:08:07.297Z,99918.13
2023-01-27T19:13:10.796Z,99890.81
2023-01-27T19:18:16.245Z,99920.06
2023-01-27T19:23:21.438Z,99925.25
2023-01-27T19:28:33.288Z,99899.75
2023-01-27T19:33:37.613Z,99930.50
2023-01-27T19:38:39.937Z,99928.91
2023-01-27T19:43:42.364Z,99893.38
2023-01-27T19:48:44.701Z,99939.31
2023-01-27T19:53:47.234Z,99878.28
2023-01-27T19:58:52.860Z,99935.16
2023-01-27T20:03:55.282Z,99904.16
2023-01-27T20:09:09.076Z,99925.44
2023-01-27T20:14:16.819Z,99922.81
2023-01-27T20:19:19.444Z,99926.16
2023-01-27T20:24:21.854Z,99889.19
2023-01-27T20:29:24.066Z,99931.72
2023-01-27T20:34:26.268Z,99916.69
2023-01-27T20:39:31.712Z,99944.97
2023-01-27T20:44:33.996Z,99916.63
2023-01-27T20:49:36.917Z,99925.34
2023-01-27T20:54:39.058Z,99927.38
2023-01-27T20:59:42.275Z,99929.06
2023-01-27T21:04:44.864Z,99918.66
2023-01-27T21:09:57.090Z,99951.84
2023-01-27T21:14:59.441Z,99962.38
2023-01-27T21:20:02.181Z,99959.91
2023-01-27T21:25:06.285Z,99939.81
2023-01-27T21:30:09.284Z,99952.84
2023-01-27T21:35:11.742Z,99954.69
2023-01-27T21:40:14.368Z,99934.28
2023-01-27T21:45:17.451Z,99951.16
2023-01-27T21:50:19.977Z,99942.94
2023-01-27T21:55:26.885Z,99941.34
2023-01-27T22:00:35.462Z,99949.47
2023-01-27T22:05:39.401Z,99976.63
2023-01-27T22:10:41.642Z,99966.88
2023-01-27T22:20:57.280Z,99958.03
2023-01-27T22:25:59.465Z,99986.25
2023-01-27T22:31:02.861Z,99966.63
2023-01-27T22:36:05.863Z,99987.84
2023-01-27T22:41:08.327Z,99967.41
2023-01-27T22:46:10.902Z,99976.81
2023-01-27T22:51:13.115Z,99985.38
2023-01-27T22:56:15.571Z,99994.91
2023-01-27T23:01:17.869Z,100005.09
2023-01-27T23:06:20.200Z,100015.53
2023-01-27T23:11:22.375Z,99991.56
2023-01-27T23:16:24.546Z,100002.88
2023-01-27T23:21:26.880Z,100002.06
2023-01-27T23:26:29.199Z,99952.31
2023-01-27T23:31:31.493Z,100023.63
2023-01-27T23:36:33.912Z,100040.06
2023-01-27T23:41:36.030Z,100036.91
2023-01-27T23:46:38.547Z,100046.91
2023-01-27T23:51:40.825Z,100052.63
2023-01-27T23:56:43.020Z,100018.16
